sensor_id;sensor_type;location;lat;lon;timestamp;temperature;humidity
70986;DHT22;58645;43.068;25.610;2022-09-11T00:01:17;19.40;99.90
70986;DHT22;58645;43.068;25.610;2022-09-11T00:03:45;19.40;99.90
70986;DHT22;58645;43.068;25.610;2022-09-11T00:06:13;19.40;99.90
70986;DHT22;58645;43.068;25.610;2022-09-11T00:08:40;19.30;99.90
70986;DHT22;58645;43.068;25.610;2022-09-11T00:11:11;19.20;99.90
70986;DHT22;58645;43.068;25.610;2022-09-11T00:13:39;19.20;99.90
70986;DHT22;58645;43.068;25.610;2022-09-11T00:16:07;19.20;99.90
70986;DHT22;58645;43.068;25.610;2022-09-11T00:18:42;19.10;99.90
70986;DHT22;58645;43.068;25.610;2022-09-11T00:21:07;19.10;99.90
70986;DHT22;58645;43.068;25.610;2022-09-11T00:23:33;19.10;99.90
70986;DHT22;58645;43.068;25.610;2022-09-11T00:26:01;19.00;99.90
70986;DHT22;58645;43.068;25.610;2022-09-11T00:28:27;19.00;99.90
70986;DHT22;58645;43.068;25.610;2022-09-11T00:31:11;19.00;99.90
70986;DHT22;58645;43.068;25.610;2022-09-11T00:33:37;19.00;99.90
70986;DHT22;58645;43.068;25.610;2022-09-11T00:36:06;19.00;99.90
70986;DHT22;58645;43.068;25.610;2022-09-11T00:38:35;19.00;99.90
70986;DHT22;58645;43.068;25.610;2022-09-11T00:41:03;18.90;99.90
70986;DHT22;58645;43.068;25.610;2022-09-11T00:46:47;18.80;99.90
70986;DHT22;58645;43.068;25.610;2022-09-11T00:51:52;18.70;99.90
70986;DHT22;58645;43.068;25.610;2022-09-11T00:54:26;18.70;99.90
70986;DHT22;58645;43.068;25.610;2022-09-11T00:56:53;18.60;99.90
70986;DHT22;58645;43.068;25.610;2022-09-11T00:59:22;18.70;99.90
70986;DHT22;58645;43.068;25.610;2022-09-11T01:01:52;18.60;99.90
70986;DHT22;58645;43.068;25.610;2022-09-11T01:04:20;18.60;99.90
70986;DHT22;58645;43.068;25.610;2022-09-11T01:06:46;18.90;99.90
70986;DHT22;58645;43.068;25.610;2022-09-11T01:09:12;18.60;99.90
70986;DHT22;58645;43.068;25.610;2022-09-11T01:14:45;18.60;99.90
70986;DHT22;58645;43.068;25.610;2022-09-11T01:28:15;18.60;99.90
70986;DHT22;58645;43.068;25.610;2022-09-11T01:30:47;18.50;99.90
70986;DHT22;58645;43.068;25.610;2022-09-11T01:35:55;18.50;99.90
70986;DHT22;58645;43.068;25.610;2022-09-11T01:38:36;18.50;99.90
70986;DHT22;58645;43.068;25.610;2022-09-11T01:46:24;18.30;99.90
70986;DHT22;58645;43.068;25.610;2022-09-11T01:49:26;18.30;99.90
70986;DHT22;58645;43.068;25.610;2022-09-11T01:51:57;18.20;99.90
70986;DHT22;58645;43.068;25.610;2022-09-11T01:54:28;18.20;99.90
70986;DHT22;58645;43.068;25.610;2022-09-11T01:57:06;18.20;99.90
70986;DHT22;58645;43.068;25.610;2022-09-11T01:59:54;18.10;99.90
70986;DHT22;58645;43.068;25.610;2022-09-11T02:02:25;18.10;99.90
70986;DHT22;58645;43.068;25.610;2022-09-11T02:05:06;18.10;99.90
70986;DHT22;58645;43.068;25.610;2022-09-11T02:07:37;18.10;99.90
70986;DHT22;58645;43.068;25.610;2022-09-11T02:10:08;18.10;99.90
70986;DHT22;58645;43.068;25.610;2022-09-11T02:13:14;18.10;99.90
70986;DHT22;58645;43.068;25.610;2022-09-11T02:15:49;18.00;99.90
70986;DHT22;58645;43.068;25.610;2022-09-11T02:18:44;18.00;99.90
70986;DHT22;58645;43.068;25.610;2022-09-11T02:21:12;18.00;99.90
70986;DHT22;58645;43.068;25.610;2022-09-11T02:23:38;18.00;99.90
70986;DHT22;58645;43.068;25.610;2022-09-11T02:26:06;18.00;99.90
70986;DHT22;58645;43.068;25.610;2022-09-11T02:28:34;18.00;99.90
70986;DHT22;58645;43.068;25.610;2022-09-11T02:31:00;18.00;99.90
70986;DHT22;58645;43.068;25.610;2022-09-11T02:33:33;18.10;99.90
70986;DHT22;58645;43.068;25.610;2022-09-11T02:41:50;18.20;99.90
70986;DHT22;58645;43.068;25.610;2022-09-11T02:52:56;18.10;99.90
70986;DHT22;58645;43.068;25.610;2022-09-11T02:58:36;18.10;99.90
70986;DHT22;58645;43.068;25.610;2022-09-11T03:01:04;18.10;99.90
70986;DHT22;58645;43.068;25.610;2022-09-11T03:03:37;18.10;99.90
70986;DHT22;58645;43.068;25.610;2022-09-11T03:06:05;18.10;99.90
70986;DHT22;58645;43.068;25.610;2022-09-11T03:08:31;18.00;99.90
70986;DHT22;58645;43.068;25.610;2022-09-11T03:10:57;18.00;99.90
70986;DHT22;58645;43.068;25.610;2022-09-11T03:13:22;18.00;99.90
70986;DHT22;58645;43.068;25.610;2022-09-11T03:15:49;18.00;99.90
70986;DHT22;58645;43.068;25.610;2022-09-11T03:18:14;18.00;99.90
70986;DHT22;58645;43.068;25.610;2022-09-11T03:20:47;18.00;99.90
70986;DHT22;58645;43.068;25.610;2022-09-11T03:23:13;17.90;99.90
70986;DHT22;58645;43.068;25.610;2022-09-11T03:25:39;17.90;99.90
70986;DHT22;58645;43.068;25.610;2022-09-11T03:28:05;17.90;99.90
70986;DHT22;58645;43.068;25.610;2022-09-11T03:30:31;17.80;99.90
70986;DHT22;58645;43.068;25.610;2022-09-11T03:32:57;17.80;99.90
70986;DHT22;58645;43.068;25.610;2022-09-11T03:35:25;17.80;99.90
70986;DHT22;58645;43.068;25.610;2022-09-11T03:37:52;17.90;99.90
70986;DHT22;58645;43.068;25.610;2022-09-11T03:40:20;17.90;99.90
70986;DHT22;58645;43.068;25.610;2022-09-11T03:42:46;17.80;99.90
70986;DHT22;58645;43.068;25.610;2022-09-11T03:45:12;17.90;99.90
70986;DHT22;58645;43.068;25.610;2022-09-11T03:47:39;17.80;99.90
70986;DHT22;58645;43.068;25.610;2022-09-11T03:50:06;17.80;99.90
70986;DHT22;58645;43.068;25.610;2022-09-11T03:52:32;17.80;99.90
70986;DHT22;58645;43.068;25.610;2022-09-11T03:54:58;17.70;99.90
70986;DHT22;58645;43.068;25.610;2022-09-11T03:57:25;17.70;99.90
70986;DHT22;58645;43.068;25.610;2022-09-11T03:59:51;17.60;99.90
70986;DHT22;58645;43.068;25.610;2022-09-11T04:02:16;17.60;99.90
70986;DHT22;58645;43.068;25.610;2022-09-11T04:04:43;17.60;99.90
70986;DHT22;58645;43.068;25.610;2022-09-11T04:07:09;17.60;99.90
70986;DHT22;58645;43.068;25.610;2022-09-11T04:09:35;17.60;99.90
70986;DHT22;58645;43.068;25.610;2022-09-11T04:12:00;17.50;99.90
70986;DHT22;58645;43.068;25.610;2022-09-11T04:14:27;17.50;99.90
70986;DHT22;58645;43.068;25.610;2022-09-11T04:16:53;16.90;99.90
70986;DHT22;58645;43.068;25.610;2022-09-11T04:19:18;17.50;99.90
70986;DHT22;58645;43.068;25.610;2022-09-11T04:21:46;17.60;99.90
70986;DHT22;58645;43.068;25.610;2022-09-11T04:24:12;17.60;99.90
70986;DHT22;58645;43.068;25.610;2022-09-11T04:26:38;17.60;99.90
70986;DHT22;58645;43.068;25.610;2022-09-11T04:29:03;17.60;99.90
70986;DHT22;58645;43.068;25.610;2022-09-11T04:31:30;17.60;99.90
70986;DHT22;58645;43.068;25.610;2022-09-11T04:33:55;17.70;99.90
70986;DHT22;58645;43.068;25.610;2022-09-11T04:36:21;17.80;99.90
70986;DHT22;58645;43.068;25.610;2022-09-11T04:38:54;17.80;99.90
70986;DHT22;58645;43.068;25.610;2022-09-11T04:41:20;17.90;99.90
70986;DHT22;58645;43.068;25.610;2022-09-11T04:43:46;17.90;99.90
70986;DHT22;58645;43.068;25.610;2022-09-11T04:46:13;18.10;99.90
70986;DHT22;58645;43.068;25.610;2022-09-11T04:48:48;18.20;99.90
70986;DHT22;58645;43.068;25.610;2022-09-11T04:51:34;18.40;99.90
70986;DHT22;58645;43.068;25.610;2022-09-11T04:54:01;18.60;99.90
70986;DHT22;58645;43.068;25.610;2022-09-11T04:56:29;18.70;99.90
70986;DHT22;58645;43.068;25.610;2022-09-11T05:01:22;19.30;99.90
70986;DHT22;58645;43.068;25.610;2022-09-11T05:03:48;20.00;99.90
70986;DHT22;58645;43.068;25.610;2022-09-11T05:06:14;20.50;99.90
70986;DHT22;58645;43.068;25.610;2022-09-11T05:08:41;20.80;99.90
70986;DHT22;58645;43.068;25.610;2022-09-11T05:11:10;21.30;99.90
70986;DHT22;58645;43.068;25.610;2022-09-11T05:13:38;21.80;99.90
70986;DHT22;58645;43.068;25.610;2022-09-11T05:16:06;22.20;99.90
70986;DHT22;58645;43.068;25.610;2022-09-11T05:18:33;22.60;99.90
70986;DHT22;58645;43.068;25.610;2022-09-11T05:21:13;22.70;99.90
70986;DHT22;58645;43.068;25.610;2022-09-11T05:23:40;22.90;99.90
70986;DHT22;58645;43.068;25.610;2022-09-11T05:26:17;23.30;99.90
70986;DHT22;58645;43.068;25.610;2022-09-11T05:28:44;23.70;99.90
70986;DHT22;58645;43.068;25.610;2022-09-11T05:31:17;23.80;99.90
70986;DHT22;58645;43.068;25.610;2022-09-11T05:33:44;24.30;99.90
70986;DHT22;58645;43.068;25.610;2022-09-11T05:36:11;24.50;99.90
70986;DHT22;58645;43.068;25.610;2022-09-11T05:38:38;24.40;99.90
70986;DHT22;58645;43.068;25.610;2022-09-11T05:41:05;24.40;99.90
70986;DHT22;58645;43.068;25.610;2022-09-11T05:43:33;24.40;99.90
70986;DHT22;58645;43.068;25.610;2022-09-11T05:45:59;24.80;99.90
70986;DHT22;58645;43.068;25.610;2022-09-11T05:48:32;24.90;99.90
70986;DHT22;58645;43.068;25.610;2022-09-11T05:51:00;25.10;99.90
70986;DHT22;58645;43.068;25.610;2022-09-11T05:53:27;25.30;99.90
70986;DHT22;58645;43.068;25.610;2022-09-11T05:55:54;25.50;99.90
70986;DHT22;58645;43.068;25.610;2022-09-11T05:58:20;25.70;99.90
70986;DHT22;58645;43.068;25.610;2022-09-11T06:00:47;25.80;99.90
70986;DHT22;58645;43.068;25.610;2022-09-11T06:03:14;25.60;99.90
70986;DHT22;58645;43.068;25.610;2022-09-11T06:05:40;25.80;99.90
70986;DHT22;58645;43.068;25.610;2022-09-11T06:08:10;26.20;99.90
70986;DHT22;58645;43.068;25.610;2022-09-11T06:10:42;26.50;99.90
70986;DHT22;58645;43.068;25.610;2022-09-11T06:13:11;26.70;99.90
70986;DHT22;58645;43.068;25.610;2022-09-11T06:15:46;26.70;99.90
70986;DHT22;58645;43.068;25.610;2022-09-11T06:18:14;26.90;99.90
70986;DHT22;58645;43.068;25.610;2022-09-11T06:20:40;26.70;99.90
70986;DHT22;58645;43.068;25.610;2022-09-11T06:23:08;27.10;99.90
70986;DHT22;58645;43.068;25.610;2022-09-11T06:25:35;27.40;99.90
70986;DHT22;58645;43.068;25.610;2022-09-11T06:28:01;27.60;99.90
70986;DHT22;58645;43.068;25.610;2022-09-11T06:30:27;27.60;99.90
70986;DHT22;58645;43.068;25.610;2022-09-11T06:32:53;27.80;99.90
70986;DHT22;58645;43.068;25.610;2022-09-11T06:35:21;28.20;99.90
70986;DHT22;58645;43.068;25.610;2022-09-11T06:37:48;28.30;99.90
70986;DHT22;58645;43.068;25.610;2022-09-11T06:40:14;28.50;99.90
70986;DHT22;58645;43.068;25.610;2022-09-11T06:42:40;28.50;99.90
70986;DHT22;58645;43.068;25.610;2022-09-11T06:45:06;28.60;99.90
70986;DHT22;58645;43.068;25.610;2022-09-11T06:47:33;28.90;99.90
70986;DHT22;58645;43.068;25.610;2022-09-11T06:49:59;29.00;99.90
70986;DHT22;58645;43.068;25.610;2022-09-11T06:52:24;29.20;99.90
70986;DHT22;58645;43.068;25.610;2022-09-11T06:54:50;29.20;99.90
70986;DHT22;58645;43.068;25.610;2022-09-11T06:57:16;29.00;95.90
70986;DHT22;58645;43.068;25.610;2022-09-11T06:59:41;29.10;99.90
70986;DHT22;58645;43.068;25.610;2022-09-11T07:02:10;28.90;99.90
70986;DHT22;58645;43.068;25.610;2022-09-11T07:04:36;28.80;99.90
70986;DHT22;58645;43.068;25.610;2022-09-11T07:07:02;29.10;99.90
70986;DHT22;58645;43.068;25.610;2022-09-11T07:09:27;29.00;99.70
70986;DHT22;58645;43.068;25.610;2022-09-11T07:11:53;29.10;96.60
70986;DHT22;58645;43.068;25.610;2022-09-11T07:14:19;29.20;99.90
70986;DHT22;58645;43.068;25.610;2022-09-11T07:16:49;29.30;91.60
70986;DHT22;58645;43.068;25.610;2022-09-11T07:19:20;29.30;87.20
70986;DHT22;58645;43.068;25.610;2022-09-11T07:21:46;29.30;90.40
70986;DHT22;58645;43.068;25.610;2022-09-11T07:24:11;28.90;80.50
70986;DHT22;58645;43.068;25.610;2022-09-11T07:26:37;28.90;79.90
70986;DHT22;58645;43.068;25.610;2022-09-11T07:29:03;29.10;87.40
70986;DHT22;58645;43.068;25.610;2022-09-11T07:31:30;29.30;82.20
70986;DHT22;58645;43.068;25.610;2022-09-11T07:33:58;29.50;72.90
70986;DHT22;58645;43.068;25.610;2022-09-11T07:36:29;29.30;65.60
70986;DHT22;58645;43.068;25.610;2022-09-11T07:38:56;29.50;65.30
70986;DHT22;58645;43.068;25.610;2022-09-11T07:41:24;29.50;62.90
70986;DHT22;58645;43.068;25.610;2022-09-11T07:43:55;29.30;60.90
70986;DHT22;58645;43.068;25.610;2022-09-11T07:46:22;29.50;58.90
70986;DHT22;58645;43.068;25.610;2022-09-11T07:48:49;29.80;59.00
70986;DHT22;58645;43.068;25.610;2022-09-11T07:51:16;30.00;58.40
70986;DHT22;58645;43.068;25.610;2022-09-11T07:53:50;29.90;56.00
70986;DHT22;58645;43.068;25.610;2022-09-11T07:56:22;30.10;58.50
70986;DHT22;58645;43.068;25.610;2022-09-11T07:58:48;30.20;53.90
70986;DHT22;58645;43.068;25.610;2022-09-11T08:01:16;30.40;58.90
70986;DHT22;58645;43.068;25.610;2022-09-11T08:03:43;30.90;53.40
70986;DHT22;58645;43.068;25.610;2022-09-11T08:06:12;30.70;52.00
70986;DHT22;58645;43.068;25.610;2022-09-11T08:08:40;30.40;50.60
70986;DHT22;58645;43.068;25.610;2022-09-11T08:11:14;30.30;52.30
70986;DHT22;58645;43.068;25.610;2022-09-11T08:13:40;31.10;53.60
70986;DHT22;58645;43.068;25.610;2022-09-11T08:16:06;31.10;50.40
70986;DHT22;58645;43.068;25.610;2022-09-11T08:18:33;31.80;50.90
70986;DHT22;58645;43.068;25.610;2022-09-11T08:21:04;32.50;47.00
70986;DHT22;58645;43.068;25.610;2022-09-11T08:23:33;32.80;44.50
70986;DHT22;58645;43.068;25.610;2022-09-11T08:26:12;32.90;42.30
70986;DHT22;58645;43.068;25.610;2022-09-11T08:28:40;33.20;42.80
70986;DHT22;58645;43.068;25.610;2022-09-11T08:31:10;33.20;41.60
70986;DHT22;58645;43.068;25.610;2022-09-11T08:33:36;33.90;40.00
70986;DHT22;58645;43.068;25.610;2022-09-11T08:36:05;34.00;40.20
70986;DHT22;58645;43.068;25.610;2022-09-11T08:38:31;33.60;39.90
70986;DHT22;58645;43.068;25.610;2022-09-11T08:41:07;33.70;40.30
70986;DHT22;58645;43.068;25.610;2022-09-11T08:43:35;34.00;38.70
70986;DHT22;58645;43.068;25.610;2022-09-11T08:46:06;34.40;38.30
70986;DHT22;58645;43.068;25.610;2022-09-11T08:51:18;33.90;36.30
70986;DHT22;58645;43.068;25.610;2022-09-11T08:53:44;33.20;38.60
70986;DHT22;58645;43.068;25.610;2022-09-11T08:56:18;33.50;38.30
70986;DHT22;58645;43.068;25.610;2022-09-11T09:13:27;34.20;36.10
70986;DHT22;58645;43.068;25.610;2022-09-11T09:19:04;34.40;36.10
70986;DHT22;58645;43.068;25.610;2022-09-11T09:24:18;35.30;33.90
70986;DHT22;58645;43.068;25.610;2022-09-11T09:26:49;34.70;32.80
70986;DHT22;58645;43.068;25.610;2022-09-11T09:29:23;34.80;35.40
70986;DHT22;58645;43.068;25.610;2022-09-11T09:31:52;35.30;33.40
70986;DHT22;58645;43.068;25.610;2022-09-11T09:34:21;35.50;33.10
70986;DHT22;58645;43.068;25.610;2022-09-11T09:39:57;34.80;33.30
70986;DHT22;58645;43.068;25.610;2022-09-11T09:47:36;35.40;33.00
70986;DHT22;58645;43.068;25.610;2022-09-11T09:50:04;35.00;33.30
70986;DHT22;58645;43.068;25.610;2022-09-11T09:52:33;35.00;32.60
70986;DHT22;58645;43.068;25.610;2022-09-11T09:55:05;35.10;32.50
70986;DHT22;58645;43.068;25.610;2022-09-11T09:57:35;34.80;31.90
70986;DHT22;58645;43.068;25.610;2022-09-11T10:00:05;35.00;33.10
70986;DHT22;58645;43.068;25.610;2022-09-11T10:02:45;35.60;30.70
70986;DHT22;58645;43.068;25.610;2022-09-11T10:08:03;35.40;32.10
70986;DHT22;58645;43.068;25.610;2022-09-11T10:10:32;35.50;31.70
70986;DHT22;58645;43.068;25.610;2022-09-11T10:13:19;35.30;31.30
70986;DHT22;58645;43.068;25.610;2022-09-11T10:15:50;35.30;32.60
70986;DHT22;58645;43.068;25.610;2022-09-11T10:21:23;36.00;30.50
70986;DHT22;58645;43.068;25.610;2022-09-11T10:26:29;35.70;30.70
70986;DHT22;58645;43.068;25.610;2022-09-11T10:29:18;35.80;30.70
70986;DHT22;58645;43.068;25.610;2022-09-11T10:31:52;34.80;31.40
70986;DHT22;58645;43.068;25.610;2022-09-11T10:34:21;34.10;32.80
70986;DHT22;58645;43.068;25.610;2022-09-11T10:37:01;34.30;32.50
70986;DHT22;58645;43.068;25.610;2022-09-11T10:39:30;33.30;33.70
70986;DHT22;58645;43.068;25.610;2022-09-11T10:42:00;33.70;32.60
70986;DHT22;58645;43.068;25.610;2022-09-11T10:44:27;33.30;33.60
70986;DHT22;58645;43.068;25.610;2022-09-11T10:47:14;32.40;34.80
70986;DHT22;58645;43.068;25.610;2022-09-11T10:49:40;32.00;35.60
70986;DHT22;58645;43.068;25.610;2022-09-11T11:02:31;34.10;32.90
70986;DHT22;58645;43.068;25.610;2022-09-11T11:05:16;34.30;32.20
70986;DHT22;58645;43.068;25.610;2022-09-11T11:24:45;34.30;32.60
70986;DHT22;58645;43.068;25.610;2022-09-11T11:30:26;35.10;32.00
70986;DHT22;58645;43.068;25.610;2022-09-11T11:38:02;35.80;30.10
70986;DHT22;58645;43.068;25.610;2022-09-11T11:40:45;35.70;29.60
70986;DHT22;58645;43.068;25.610;2022-09-11T11:43:15;35.60;31.30
70986;DHT22;58645;43.068;25.610;2022-09-11T11:51:29;34.70;31.10
70986;DHT22;58645;43.068;25.610;2022-09-11T11:54:08;34.80;32.00
70986;DHT22;58645;43.068;25.610;2022-09-11T11:59:30;35.10;31.30
70986;DHT22;58645;43.068;25.610;2022-09-11T12:07:28;34.60;29.50
70986;DHT22;58645;43.068;25.610;2022-09-11T12:09:56;34.10;32.30
70986;DHT22;58645;43.068;25.610;2022-09-11T12:12:26;34.30;32.20
70986;DHT22;58645;43.068;25.610;2022-09-11T12:15:02;34.80;31.20
70986;DHT22;58645;43.068;25.610;2022-09-11T12:17:31;34.70;31.50
70986;DHT22;58645;43.068;25.610;2022-09-11T12:22:53;34.40;31.10
70986;DHT22;58645;43.068;25.610;2022-09-11T12:32:49;32.40;34.50
70986;DHT22;58645;43.068;25.610;2022-09-11T12:37:53;31.90;34.70
70986;DHT22;58645;43.068;25.610;2022-09-11T12:40:39;31.80;35.10
70986;DHT22;58645;43.068;25.610;2022-09-11T12:45:41;31.50;35.30
70986;DHT22;58645;43.068;25.610;2022-09-11T12:48:14;31.60;36.40
70986;DHT22;58645;43.068;25.610;2022-09-11T12:51:01;31.70;36.00
70986;DHT22;58645;43.068;25.610;2022-09-11T12:53:31;31.60;36.10
70986;DHT22;58645;43.068;25.610;2022-09-11T12:56:08;31.40;35.60
70986;DHT22;58645;43.068;25.610;2022-09-11T12:58:43;31.20;36.40
70986;DHT22;58645;43.068;25.610;2022-09-11T13:06:23;30.70;36.80
70986;DHT22;58645;43.068;25.610;2022-09-11T13:08:55;30.50;37.80
70986;DHT22;58645;43.068;25.610;2022-09-11T13:11:42;30.20;37.60
70986;DHT22;58645;43.068;25.610;2022-09-11T13:16:56;29.70;37.90
70986;DHT22;58645;43.068;25.610;2022-09-11T13:19:23;29.50;38.00
70986;DHT22;58645;43.068;25.610;2022-09-11T13:21:55;29.30;37.90
70986;DHT22;58645;43.068;25.610;2022-09-11T13:27:11;29.00;38.90
70986;DHT22;58645;43.068;25.610;2022-09-11T13:29:39;29.10;38.70
70986;DHT22;58645;43.068;25.610;2022-09-11T13:32:12;28.80;38.00
70986;DHT22;58645;43.068;25.610;2022-09-11T13:34:43;28.70;39.30
70986;DHT22;58645;43.068;25.610;2022-09-11T13:37:12;28.80;39.20
70986;DHT22;58645;43.068;25.610;2022-09-11T13:39:41;28.60;39.70
70986;DHT22;58645;43.068;25.610;2022-09-11T13:42:11;28.60;38.70
70986;DHT22;58645;43.068;25.610;2022-09-11T13:44:49;28.50;39.30
70986;DHT22;58645;43.068;25.610;2022-09-11T13:47:24;28.50;39.40
70986;DHT22;58645;43.068;25.610;2022-09-11T13:49:54;28.30;40.30
70986;DHT22;58645;43.068;25.610;2022-09-11T13:52:21;28.40;40.40
70986;DHT22;58645;43.068;25.610;2022-09-11T13:54:52;28.40;39.30
70986;DHT22;58645;43.068;25.610;2022-09-11T13:57:20;28.20;40.00
70986;DHT22;58645;43.068;25.610;2022-09-11T13:59:51;28.20;40.10
70986;DHT22;58645;43.068;25.610;2022-09-11T14:07:45;28.00;38.70
70986;DHT22;58645;43.068;25.610;2022-09-11T14:15:53;27.90;38.80
70986;DHT22;58645;43.068;25.610;2022-09-11T14:21:11;27.80;39.20
70986;DHT22;58645;43.068;25.610;2022-09-11T14:23:45;27.70;39.50
70986;DHT22;58645;43.068;25.610;2022-09-11T14:26:15;27.70;39.70
70986;DHT22;58645;43.068;25.610;2022-09-11T14:31:13;27.50;39.50
70986;DHT22;58645;43.068;25.610;2022-09-11T14:36:33;27.40;40.30
70986;DHT22;58645;43.068;25.610;2022-09-11T14:39:02;27.30;40.50
70986;DHT22;58645;43.068;25.610;2022-09-11T14:41:29;27.10;40.40
70986;DHT22;58645;43.068;25.610;2022-09-11T14:43:55;26.90;40.20
70986;DHT22;58645;43.068;25.610;2022-09-11T14:46:21;26.90;40.60
70986;DHT22;58645;43.068;25.610;2022-09-11T14:48:47;26.90;40.20
70986;DHT22;58645;43.068;25.610;2022-09-11T14:51:12;27.00;40.80
70986;DHT22;58645;43.068;25.610;2022-09-11T14:53:38;26.90;40.40
70986;DHT22;58645;43.068;25.610;2022-09-11T14:56:07;26.80;40.60
70986;DHT22;58645;43.068;25.610;2022-09-11T14:58:34;26.80;41.10
70986;DHT22;58645;43.068;25.610;2022-09-11T15:00:59;26.60;41.30
70986;DHT22;58645;43.068;25.610;2022-09-11T15:03:26;26.50;41.30
70986;DHT22;58645;43.068;25.610;2022-09-11T15:05:56;26.40;41.00
70986;DHT22;58645;43.068;25.610;2022-09-11T15:08:23;26.30;41.20
70986;DHT22;58645;43.068;25.610;2022-09-11T15:10:49;26.20;41.70
70986;DHT22;58645;43.068;25.610;2022-09-11T15:13:17;26.20;42.00
70986;DHT22;58645;43.068;25.610;2022-09-11T15:15:45;26.10;42.00
70986;DHT22;58645;43.068;25.610;2022-09-11T15:18:11;26.00;41.80
70986;DHT22;58645;43.068;25.610;2022-09-11T15:20:37;26.00;41.80
70986;DHT22;58645;43.068;25.610;2022-09-11T15:23:02;26.00;41.70
70986;DHT22;58645;43.068;25.610;2022-09-11T15:25:28;26.10;41.40
70986;DHT22;58645;43.068;25.610;2022-09-11T15:27:54;26.20;41.80
70986;DHT22;58645;43.068;25.610;2022-09-11T15:30:20;26.10;41.50
70986;DHT22;58645;43.068;25.610;2022-09-11T15:32:47;26.10;41.70
70986;DHT22;58645;43.068;25.610;2022-09-11T15:35:14;26.10;41.60
70986;DHT22;58645;43.068;25.610;2022-09-11T15:37:44;26.10;42.10
70986;DHT22;58645;43.068;25.610;2022-09-11T15:40:11;26.20;42.10
70986;DHT22;58645;43.068;25.610;2022-09-11T15:42:37;26.10;41.70
70986;DHT22;58645;43.068;25.610;2022-09-11T15:45:03;26.00;41.80
70986;DHT22;58645;43.068;25.610;2022-09-11T15:47:29;26.00;42.10
70986;DHT22;58645;43.068;25.610;2022-09-11T15:49:57;26.00;42.30
70986;DHT22;58645;43.068;25.610;2022-09-11T15:52:23;26.00;42.40
70986;DHT22;58645;43.068;25.610;2022-09-11T15:54:51;25.90;41.80
70986;DHT22;58645;43.068;25.610;2022-09-11T15:57:17;25.70;42.30
70986;DHT22;58645;43.068;25.610;2022-09-11T15:59:43;25.70;42.90
70986;DHT22;58645;43.068;25.610;2022-09-11T16:02:10;25.60;43.20
70986;DHT22;58645;43.068;25.610;2022-09-11T16:04:36;25.50;43.30
70986;DHT22;58645;43.068;25.610;2022-09-11T16:07:02;25.30;43.90
70986;DHT22;58645;43.068;25.610;2022-09-11T16:09:29;25.30;44.10
70986;DHT22;58645;43.068;25.610;2022-09-11T16:11:56;25.20;44.10
70986;DHT22;58645;43.068;25.610;2022-09-11T16:14:24;25.10;44.60
70986;DHT22;58645;43.068;25.610;2022-09-11T16:16:52;25.00;44.90
70986;DHT22;58645;43.068;25.610;2022-09-11T16:19:21;25.00;45.30
70986;DHT22;58645;43.068;25.610;2022-09-11T16:21:48;24.80;45.70
70986;DHT22;58645;43.068;25.610;2022-09-11T16:24:15;24.70;46.10
70986;DHT22;58645;43.068;25.610;2022-09-11T16:26:42;24.60;46.10
70986;DHT22;58645;43.068;25.610;2022-09-11T16:29:10;24.60;46.40
70986;DHT22;58645;43.068;25.610;2022-09-11T16:31:37;24.40;46.60
70986;DHT22;58645;43.068;25.610;2022-09-11T16:34:04;24.40;46.90
70986;DHT22;58645;43.068;25.610;2022-09-11T16:36:30;24.30;47.10
70986;DHT22;58645;43.068;25.610;2022-09-11T16:39:10;24.20;47.30
70986;DHT22;58645;43.068;25.610;2022-09-11T16:41:36;24.10;48.10
70986;DHT22;58645;43.068;25.610;2022-09-11T16:44:03;24.00;48.80
70986;DHT22;58645;43.068;25.610;2022-09-11T16:46:29;23.90;48.90
70986;DHT22;58645;43.068;25.610;2022-09-11T16:48:55;23.80;49.30
70986;DHT22;58645;43.068;25.610;2022-09-11T16:51:22;23.70;50.10
70986;DHT22;58645;43.068;25.610;2022-09-11T16:53:48;23.50;50.70
70986;DHT22;58645;43.068;25.610;2022-09-11T16:56:14;23.40;51.40
70986;DHT22;58645;43.068;25.610;2022-09-11T16:58:40;23.20;52.00
70986;DHT22;58645;43.068;25.610;2022-09-11T17:01:10;23.10;52.60
70986;DHT22;58645;43.068;25.610;2022-09-11T17:03:36;23.10;52.90
70986;DHT22;58645;43.068;25.610;2022-09-11T17:06:03;22.90;53.00
70986;DHT22;58645;43.068;25.610;2022-09-11T17:08:31;22.80;53.10
70986;DHT22;58645;43.068;25.610;2022-09-11T17:10:58;22.80;53.50
70986;DHT22;58645;43.068;25.610;2022-09-11T17:13:25;22.70;53.30
70986;DHT22;58645;43.068;25.610;2022-09-11T17:16:03;22.60;53.10
70986;DHT22;58645;43.068;25.610;2022-09-11T17:18:29;22.50;53.50
70986;DHT22;58645;43.068;25.610;2022-09-11T17:21:01;22.50;53.50
70986;DHT22;58645;43.068;25.610;2022-09-11T17:23:27;22.40;53.70
70986;DHT22;58645;43.068;25.610;2022-09-11T17:25:53;22.40;53.80
70986;DHT22;58645;43.068;25.610;2022-09-11T17:28:18;22.30;54.40
70986;DHT22;58645;43.068;25.610;2022-09-11T17:30:44;22.30;55.00
70986;DHT22;58645;43.068;25.610;2022-09-11T17:33:10;22.20;55.10
70986;DHT22;58645;43.068;25.610;2022-09-11T17:35:36;22.20;55.40
70986;DHT22;58645;43.068;25.610;2022-09-11T17:38:02;22.10;55.90
70986;DHT22;58645;43.068;25.610;2022-09-11T17:40:28;22.00;55.90
70986;DHT22;58645;43.068;25.610;2022-09-11T17:42:56;22.00;56.10
70986;DHT22;58645;43.068;25.610;2022-09-11T17:45:22;22.00;56.40
70986;DHT22;58645;43.068;25.610;2022-09-11T17:47:49;22.00;56.50
70986;DHT22;58645;43.068;25.610;2022-09-11T17:50:15;21.90;57.00
70986;DHT22;58645;43.068;25.610;2022-09-11T17:52:41;21.80;57.30
70986;DHT22;58645;43.068;25.610;2022-09-11T17:55:06;21.80;58.30
70986;DHT22;58645;43.068;25.610;2022-09-11T17:57:34;21.70;58.30
70986;DHT22;58645;43.068;25.610;2022-09-11T17:59:59;21.70;58.60
70986;DHT22;58645;43.068;25.610;2022-09-11T18:02:25;21.50;58.60
70986;DHT22;58645;43.068;25.610;2022-09-11T18:04:51;21.50;58.90
70986;DHT22;58645;43.068;25.610;2022-09-11T18:07:17;21.40;58.80
70986;DHT22;58645;43.068;25.610;2022-09-11T18:09:43;21.30;59.00
70986;DHT22;58645;43.068;25.610;2022-09-11T18:12:09;21.30;59.10
70986;DHT22;58645;43.068;25.610;2022-09-11T18:14:39;21.20;59.30
70986;DHT22;58645;43.068;25.610;2022-09-11T18:17:08;21.20;59.80
70986;DHT22;58645;43.068;25.610;2022-09-11T18:19:34;21.20;60.40
70986;DHT22;58645;43.068;25.610;2022-09-11T18:22:04;21.10;60.70
70986;DHT22;58645;43.068;25.610;2022-09-11T18:24:31;21.10;61.10
70986;DHT22;58645;43.068;25.610;2022-09-11T18:26:58;21.10;62.00
70986;DHT22;58645;43.068;25.610;2022-09-11T18:29:24;21.00;62.00